createdAt,value
2022-09-21T00:14:37.003Z,11.10
2022-09-21T00:17:05.494Z,11.10
2022-09-21T00:19:36.472Z,11.10
2022-09-21T00:22:04.874Z,11.00
2022-09-21T00:24:33.545Z,11.00
2022-09-21T00:27:01.911Z,11.00
2022-09-21T00:29:30.265Z,11.00
2022-09-21T00:32:00.154Z,10.90
2022-09-21T00:34:28.725Z,10.90
2022-09-21T00:36:57.101Z,10.80
2022-09-21T00:39:25.532Z,10.80
2022-09-21T00:41:54.001Z,10.80
2022-09-21T00:44:29.812Z,10.70
2022-09-21T00:47:05.776Z,10.70
2022-09-21T00:49:36.701Z,10.60
2022-09-21T00:52:08.133Z,10.60
2022-09-21T00:54:43.638Z,10.60
2022-09-21T00:57:12.603Z,10.60
2022-09-21T00:59:43.727Z,10.50
2022-09-21T01:02:15.482Z,10.50
2022-09-21T01:04:44.644Z,10.50
2022-09-21T01:07:18.280Z,10.50
2022-09-21T01:09:49.654Z,10.50
2022-09-21T01:12:35.028Z,10.50
2022-09-21T01:15:21.690Z,10.60
2022-09-21T01:18:00.422Z,10.50
2022-09-21T01:20:45.460Z,10.50
2022-09-21T01:23:25.451Z,10.50
2022-09-21T01:26:03.757Z,10.50
2022-09-21T01:28:43.753Z,10.50
2022-09-21T01:31:21.555Z,10.50
2022-09-21T01:33:54.206Z,10.50
2022-09-21T01:36:27.214Z,10.40
2022-09-21T01:39:01.500Z,10.40
2022-09-21T01:41:33.545Z,10.40
2022-09-21T01:44:08.634Z,10.40
2022-09-21T01:46:39.349Z,10.40
2022-09-21T01:49:12.197Z,10.40
2022-09-21T01:51:45.293Z,10.30
2022-09-21T01:54:17.157Z,10.30
2022-09-21T01:56:49.378Z,10.40
2022-09-21T01:59:23.471Z,10.40
2022-09-21T02:01:56.253Z,10.30
2022-09-21T02:04:25.429Z,10.40
2022-09-21T02:06:54.125Z,10.40
2022-09-21T02:09:22.546Z,10.40
2022-09-21T02:11:50.627Z,10.40
2022-09-21T02:14:22.235Z,10.30
2022-09-21T02:16:57.450Z,10.30
2022-09-21T02:19:36.040Z,10.30
2022-09-21T02:22:08.053Z,10.30
2022-09-21T02:24:42.231Z,10.30
2022-09-21T02:27:20.299Z,10.20
2022-09-21T02:29:51.890Z,10.20
2022-09-21T02:32:35.187Z,10.10
2022-09-21T02:35:07.131Z,10.10
2022-09-21T02:37:39.050Z,10.00
2022-09-21T02:40:18.344Z,9.90
2022-09-21T02:42:49.559Z,9.80
2022-09-21T02:45:22.796Z,9.70
2022-09-21T02:47:59.035Z,9.70
2022-09-21T02:50:34.053Z,9.70
2022-09-21T02:53:04.998Z,9.60
2022-09-21T02:55:34.791Z,9.60
2022-09-21T02:58:06.949Z,9.50
2022-09-21T03:05:57.139Z,9.30
2022-09-21T03:08:25.271Z,9.20
2022-09-21T03:10:53.977Z,9.10
2022-09-21T03:13:22.033Z,9.00
2022-09-21T03:15:50.153Z,8.90
2022-09-21T03:18:18.166Z,8.90
2022-09-21T03:20:47.126Z,8.90
2022-09-21T03:23:16.522Z,8.90
2022-09-21T03:25:46.025Z,8.80
2022-09-21T03:28:14.919Z,8.70
2022-09-21T03:30:43.343Z,8.70
2022-09-21T03:33:12.885Z,8.70
2022-09-21T03:35:41.305Z,8.60
2022-09-21T03:38:09.556Z,8.60
2022-09-21T03:40:38.960Z,8.50
2022-09-21T03:43:07.214Z,8.50
2022-09-21T03:45:35.242Z,8.40
2022-09-21T03:48:03.887Z,8.30
2022-09-21T03:50:31.907Z,8.30
2022-09-21T03:53:00.156Z,8.20
2022-09-21T03:55:29.820Z,8.20
2022-09-21T03:57:59.179Z,8.20
2022-09-21T04:00:27.507Z,8.10
2022-09-21T04:02:55.735Z,8.10
2022-09-21T04:05:24.248Z,8.10
2022-09-21T04:07:52.297Z,8.10
2022-09-21T04:10:23.475Z,8.10
2022-09-21T04:12:52.125Z,8.10
2022-09-21T04:15:21.633Z,8.00
2022-09-21T04:17:52.132Z,8.00
2022-09-21T04:20:20.456Z,8.00
2022-09-21T04:22:48.746Z,7.90
2022-09-21T04:25:17.158Z,7.90
2022-09-21T04:27:45.222Z,7.90
2022-09-21T04:30:15.140Z,7.80
2022-09-21T04:32:44.596Z,7.80
2022-09-21T04:35:12.772Z,7.80
2022-09-21T04:37:40.786Z,7.70
2022-09-21T04:40:10.269Z,7.70
2022-09-21T04:42:38.520Z,7.70
2022-09-21T04:45:07.837Z,7.60
2022-09-21T04:47:35.996Z,7.60
2022-09-21T04:50:06.131Z,7.60
2022-09-21T04:52:34.153Z,7.60
2022-09-21T04:55:02.206Z,7.60
2022-09-21T04:57:30.202Z,7.60
2022-09-21T04:59:58.229Z,7.50
2022-09-21T05:02:26.318Z,7.50
2022-09-21T05:04:54.393Z,7.50
2022-09-21T05:07:23.779Z,7.50
2022-09-21T05:10:06.166Z,7.40
2022-09-21T05:12:38.571Z,7.40
2022-09-21T05:15:10.503Z,7.40
2022-09-21T05:17:38.563Z,7.40
2022-09-21T05:20:07.677Z,7.40
2022-09-21T05:22:37.099Z,7.40
2022-09-21T05:25:05.840Z,7.40
2022-09-21T05:27:33.838Z,7.40
2022-09-21T05:30:02.423Z,7.40
2022-09-21T05:32:42.676Z,7.40
2022-09-21T05:35:19.411Z,7.40
2022-09-21T05:37:54.921Z,7.40
2022-09-21T05:40:23.392Z,7.40
2022-09-21T05:42:51.976Z,7.50
2022-09-21T05:45:23.102Z,7.50
2022-09-21T05:47:58.685Z,7.50
2022-09-21T05:50:39.404Z,7.60
2022-09-21T05:53:26.099Z,7.70
2022-09-21T05:55:57.965Z,7.70
2022-09-21T05:58:34.305Z,7.80
2022-09-21T06:01:21.878Z,7.90
2022-09-21T06:03:50.568Z,8.00
2022-09-21T06:06:19.469Z,9.00
2022-09-21T06:08:49.174Z,10.50
2022-09-21T06:11:17.569Z,11.80
2022-09-21T06:13:45.905Z,12.50
2022-09-21T06:16:14.143Z,13.70
2022-09-21T06:18:42.689Z,15.10
2022-09-21T06:21:11.136Z,16.00
2022-09-21T06:23:39.223Z,16.10
2022-09-21T06:26:08.682Z,15.40
2022-09-21T06:28:36.716Z,14.60
2022-09-21T06:31:04.877Z,13.70
2022-09-21T06:33:32.982Z,13.10
2022-09-21T06:36:01.578Z,12.80
2022-09-21T06:38:30.213Z,12.60
2022-09-21T06:41:03.194Z,12.50
2022-09-21T06:44:09.878Z,12.60
2022-09-21T06:46:37.903Z,14.30
2022-09-21T06:49:05.907Z,16.50
2022-09-21T06:51:33.940Z,18.00
2022-09-21T06:54:01.940Z,19.20
2022-09-21T06:56:30.041Z,20.10
2022-09-21T06:58:58.196Z,20.70
2022-09-21T07:01:27.746Z,21.30
2022-09-21T07:03:55.982Z,21.50
2022-09-21T07:06:24.148Z,22.00
2022-09-21T07:11:41.913Z,22.80
2022-09-21T07:14:10.000Z,22.40
2022-09-21T07:16:39.980Z,22.70
2022-09-21T07:19:11.975Z,23.10
2022-09-21T07:21:40.354Z,23.60
2022-09-21T07:24:12.240Z,24.40
2022-09-21T07:26:41.130Z,23.90
2022-09-21T07:29:09.403Z,23.90
2022-09-21T07:31:39.202Z,23.90
2022-09-21T07:34:07.387Z,24.10
2022-09-21T07:36:35.441Z,24.20
2022-09-21T07:39:04.051Z,23.80
2022-09-21T07:41:32.245Z,23.80
2022-09-21T07:44:00.243Z,23.90
2022-09-21T07:46:28.338Z,24.20
2022-09-21T07:48:58.329Z,24.80
2022-09-21T07:51:26.577Z,25.00
2022-09-21T07:53:57.746Z,24.40
2022-09-21T07:56:26.493Z,24.10
2022-09-21T07:59:08.543Z,24.10
2022-09-21T08:01:38.806Z,24.40
2022-09-21T08:04:10.942Z,24.40
2022-09-21T08:06:40.809Z,24.20
2022-09-21T08:09:09.571Z,24.60
2022-09-21T08:11:39.104Z,24.50
2022-09-21T08:14:07.354Z,24.30
2022-09-21T08:16:35.892Z,23.80
2022-09-21T08:19:05.404Z,24.10
2022-09-21T08:21:34.818Z,24.50
2022-09-21T08:24:03.114Z,25.40
2022-09-21T08:26:31.218Z,25.40
2022-09-21T08:28:59.476Z,24.80
2022-09-21T08:31:29.162Z,24.80
2022-09-21T08:33:57.678Z,24.70
2022-09-21T08:36:26.410Z,24.30
2022-09-21T08:38:56.933Z,24.30
2022-09-21T08:41:27.570Z,24.10
2022-09-21T08:44:01.432Z,25.40
2022-09-21T08:46:32.566Z,25.20
2022-09-21T08:49:07.035Z,24.40
2022-09-21T08:51:39.529Z,24.40
2022-09-21T08:54:17.999Z,23.50
2022-09-21T08:57:04.372Z,23.50
2022-09-21T08:59:34.306Z,23.60
2022-09-21T09:02:21.541Z,24.50
2022-09-21T09:04:58.310Z,23.90
2022-09-21T09:07:51.371Z,23.70
2022-09-21T09:10:37.215Z,23.90
2022-09-21T09:13:20.504Z,24.00
2022-09-21T09:16:00.301Z,24.20
2022-09-21T09:18:43.278Z,23.50
2022-09-21T09:21:23.949Z,23.20
2022-09-21T09:24:00.637Z,22.10
2022-09-21T09:26:36.729Z,21.70
2022-09-21T09:29:13.124Z,20.60
2022-09-21T09:31:42.764Z,20.20
2022-09-21T09:34:14.041Z,20.70
2022-09-21T09:36:58.297Z,20.20
2022-09-21T09:39:29.602Z,19.20
2022-09-21T09:42:30.227Z,18.00
2022-09-21T09:45:24.866Z,17.80
2022-09-21T09:51:36.782Z,18.10
2022-09-21T09:54:10.134Z,17.30
2022-09-21T09:56:38.397Z,17.10
2022-09-21T09:59:15.132Z,17.00
2022-09-21T10:01:46.418Z,16.90
2022-09-21T10:04:16.756Z,16.80
2022-09-21T10:06:46.998Z,16.60
2022-09-21T10:09:25.245Z,16.40
2022-09-21T10:11:54.351Z,16.30
2022-09-21T10:14:25.671Z,16.40
2022-09-21T10:16:56.826Z,16.40
2022-09-21T10:19:27.466Z,16.30
2022-09-21T10:21:58.633Z,16.20
2022-09-21T10:24:29.366Z,16.20
2022-09-21T10:27:04.762Z,16.30
2022-09-21T10:29:41.940Z,16.30
2022-09-21T10:32:25.418Z,16.30
2022-09-21T10:35:14.912Z,16.70
2022-09-21T10:37:44.038Z,17.00
2022-09-21T10:40:30.858Z,17.20
2022-09-21T10:43:01.350Z,17.30
2022-09-21T10:45:31.824Z,17.30
2022-09-21T10:48:08.332Z,17.30
2022-09-21T10:50:38.769Z,17.20
2022-09-21T10:53:15.346Z,17.30
2022-09-21T10:55:58.460Z,17.40
2022-09-21T10:58:37.271Z,17.10
2022-09-21T11:01:15.056Z,17.10
2022-09-21T11:03:54.890Z,17.40
2022-09-21T11:06:26.622Z,17.70
2022-09-21T11:08:59.169Z,17.90
2022-09-21T11:11:47.817Z,18.00
2022-09-21T11:14:25.535Z,18.00
2022-09-21T11:16:59.284Z,17.90
2022-09-21T11:19:35.348Z,17.60
2022-09-21T11:22:13.147Z,17.60
2022-09-21T11:24:48.158Z,17.70
2022-09-21T11:27:21.167Z,17.50
2022-09-21T11:29:58.270Z,17.40
2022-09-21T11:32:48.049Z,17.30
2022-09-21T11:35:36.686Z,17.50
2022-09-21T11:38:11.408Z,17.90
2022-09-21T11:41:00.690Z,17.70
2022-09-21T11:43:46.895Z,17.80
2022-09-21T11:46:25.663Z,17.90
2022-09-21T11:49:13.677Z,18.30
2022-09-21T11:51:58.878Z,18.70
2022-09-21T11:54:57.327Z,18.90
2022-09-21T11:57:28.574Z,18.70
2022-09-21T12:00:15.671Z,18.60
2022-09-21T12:03:10.683Z,18.50
2022-09-21T12:05:47.299Z,18.40
2022-09-21T12:08:44.980Z,18.20
2022-09-21T12:11:23.302Z,17.80
2022-09-21T12:13:58.298Z,17.60
2022-09-21T12:16:33.980Z,17.60
2022-09-21T12:19:11.003Z,17.50
2022-09-21T12:21:44.207Z,17.50
2022-09-21T12:24:18.398Z,17.60
2022-09-21T12:26:52.005Z,17.60
2022-09-21T12:29:26.804Z,17.50
2022-09-21T12:32:03.816Z,17.60
2022-09-21T12:34:41.014Z,17.60
2022-09-21T12:37:15.736Z,17.70
2022-09-21T12:39:50.114Z,17.80
2022-09-21T12:42:31.701Z,17.90
2022-09-21T12:45:07.026Z,18.10
2022-09-21T12:47:46.411Z,18.10
2022-09-21T12:50:21.604Z,18.20
2022-09-21T12:52:52.416Z,18.20
2022-09-21T12:55:33.245Z,18.00
2022-09-21T12:58:15.632Z,18.00
2022-09-21T13:01:00.361Z,17.80
2022-09-21T13:03:34.389Z,17.80
2022-09-21T13:06:30.593Z,17.80
2022-09-21T13:09:06.181Z,18.00
2022-09-21T13:11:49.807Z,18.20
2022-09-21T13:14:19.434Z,18.50
2022-09-21T13:16:57.593Z,18.70
2022-09-21T13:19:27.866Z,18.50
2022-09-21T13:22:13.818Z,18.50
2022-09-21T13:24:45.540Z,18.60
2022-09-21T13:27:13.907Z,18.50
2022-09-21T13:29:43.111Z,18.60
2022-09-21T13:32:24.780Z,18.70
2022-09-21T13:34:52.933Z,18.70
2022-09-21T13:37:31.218Z,18.90
2022-09-21T13:40:39.870Z,18.90
2022-09-21T13:43:22.265Z,19.00
2022-09-21T13:45:58.303Z,19.00
2022-09-21T13:48:30.434Z,18.80
2022-09-21T13:51:01.567Z,18.80
2022-09-21T13:53:35.775Z,18.80
2022-09-21T13:56:10.007Z,18.90
2022-09-21T13:58:45.773Z,18.80
2022-09-21T14:01:45.143Z,18.60
2022-09-21T14:04:23.697Z,18.40
2022-09-21T14:06:54.260Z,18.30
2022-09-21T14:09:27.627Z,18.40
2022-09-21T14:11:58.434Z,18.40
2022-09-21T14:14:36.912Z,18.40
2022-09-21T14:17:07.126Z,18.10
2022-09-21T14:20:07.728Z,18.00
2022-09-21T14:22:43.670Z,17.80
2022-09-21T14:25:28.246Z,17.80
2022-09-21T14:28:02.059Z,17.70
2022-09-21T14:30:35.594Z,17.80
2022-09-21T14:33:27.926Z,17.80
2022-09-21T14:35:57.453Z,17.60
2022-09-21T14:38:28.582Z,17.60
2022-09-21T14:41:02.140Z,17.40
2022-09-21T14:43:33.884Z,17.30
2022-09-21T14:46:45.745Z,17.30
2022-09-21T14:49:33.037Z,17.20
2022-09-21T14:52:20.019Z,17.40
2022-09-21T14:55:03.182Z,17.50
2022-09-21T14:57:50.548Z,17.20
2022-09-21T15:00:23.484Z,17.10
2022-09-21T15:03:05.611Z,17.00
2022-09-21T15:05:38.105Z,16.90
2022-09-21T15:08:47.647Z,16.90
2022-09-21T15:11:23.274Z,16.90
2022-09-21T15:14:04.789Z,16.90
2022-09-21T15:16:40.839Z,17.00
2022-09-21T15:19:24.829Z,16.90
2022-09-21T15:21:54.562Z,16.90
2022-09-21T15:24:28.517Z,16.70
2022-09-21T15:27:04.065Z,16.80
2022-09-21T15:29:33.742Z,16.70
2022-09-21T15:32:02.613Z,16.60
2022-09-21T15:34:32.424Z,16.50
2022-09-21T15:37:17.361Z,16.50
2022-09-21T15:39:45.562Z,16.50
2022-09-21T15:42:20.012Z,16.50
2022-09-21T15:44:50.663Z,16.50
2022-09-21T15:47:24.131Z,16.50
2022-09-21T15:49:56.918Z,16.50
2022-09-21T15:52:31.625Z,16.40
2022-09-21T15:55:02.880Z,16.40
2022-09-21T15:57:38.737Z,16.50
2022-09-21T16:00:18.348Z,16.50
2022-09-21T16:03:04.583Z,16.50
2022-09-21T16:05:45.199Z,16.40
2022-09-21T16:08:28.840Z,16.30
2022-09-21T16:18:35.790Z,16.20
2022-09-21T16:21:17.283Z,16.10
2022-09-21T16:23:45.321Z,16.00
2022-09-21T16:26:21.580Z,16.00
2022-09-21T16:28:50.669Z,16.00
2022-09-21T16:31:24.925Z,15.90
2022-09-21T16:34:07.980Z,15.90
2022-09-21T16:36:42.597Z,15.80
2022-09-21T16:39:15.557Z,15.80
2022-09-21T16:41:52.434Z,15.80
2022-09-21T16:44:22.743Z,15.70
2022-09-21T16:46:55.182Z,15.60
2022-09-21T16:49:30.020Z,15.60
2022-09-21T16:52:01.405Z,15.60
2022-09-21T16:54:30.252Z,15.50
2022-09-21T16:56:59.907Z,15.50
2022-09-21T16:59:28.697Z,15.40
2022-09-21T17:01:59.082Z,15.40
2022-09-21T17:04:29.767Z,15.30
2022-09-21T17:07:00.424Z,15.20
2022-09-21T17:09:32.559Z,15.20
2022-09-21T17:12:01.815Z,15.10
2022-09-21T17:14:35.458Z,15.10
2022-09-21T17:17:08.402Z,15.10
2022-09-21T17:19:36.949Z,15.20
2022-09-21T17:22:07.887Z,15.00
2022-09-21T17:24:50.356Z,14.90
2022-09-21T17:27:21.452Z,14.80
2022-09-21T17:29:50.399Z,14.70
2022-09-21T17:32:20.785Z,14.60
2022-09-21T17:34:53.324Z,14.40
2022-09-21T17:37:24.125Z,14.30
2022-09-21T17:51:43.429Z,13.80
2022-09-21T17:54:13.648Z,13.60
2022-09-21T17:56:48.093Z,13.50
2022-09-21T17:59:27.972Z,13.50
2022-09-21T18:01:59.390Z,13.40
2022-09-21T18:08:19.860Z,13.30
2022-09-21T18:10:59.190Z,13.20
2022-09-21T18:13:38.264Z,13.20
2022-09-21T18:16:27.234Z,13.10
2022-09-21T18:19:05.614Z,13.00
2022-09-21T18:21:38.052Z,12.90
2022-09-21T18:24:21.055Z,12.90
2022-09-21T18:26:52.609Z,12.90
2022-09-21T18:29:40.867Z,12.80
2022-09-21T18:32:28.436Z,12.80
2022-09-21T18:35:15.550Z,12.70
2022-09-21T18:37:52.065Z,12.60
2022-09-21T18:40:29.210Z,12.50
2022-09-21T18:43:06.148Z,12.50
2022-09-21T18:45:41.421Z,12.40
2022-09-21T18:48:25.540Z,12.30
2022-09-21T18:51:01.373Z,12.20
2022-09-21T18:53:37.088Z,12.10
2022-09-21T18:56:08.356Z,12.00
2022-09-21T18:58:38.588Z,11.90
2022-09-21T19:01:07.552Z,11.90
2022-09-21T19:03:37.899Z,11.80
2022-09-21T19:06:22.228Z,11.80
2022-09-21T19:08:59.832Z,11.70
2022-09-21T19:11:34.923Z,11.70
2022-09-21T19:14:12.057Z,11.70
2022-09-21T19:16:48.516Z,11.60
2022-09-21T19:19:28.401Z,11.50
2022-09-21T19:22:01.228Z,11.50
2022-09-21T19:24:36.784Z,11.40
2022-09-21T19:27:19.929Z,11.40
2022-09-21T19:30:03.743Z,11.30
2022-09-21T19:32:39.451Z,11.30
2022-09-21T19:35:17.394Z,11.20
2022-09-21T19:37:47.195Z,11.20
2022-09-21T19:40:16.192Z,11.10
2022-09-21T19:43:03.996Z,11.00
2022-09-21T19:45:45.137Z,11.00
2022-09-21T19:48:16.530Z,11.00
2022-09-21T19:50:49.626Z,10.90
2022-09-21T19:53:35.527Z,10.90
2022-09-21T19:56:26.436Z,10.80
2022-09-21T19:59:12.200Z,10.80
2022-09-21T20:01:52.491Z,10.80
2022-09-21T20:04:27.577Z,10.80
2022-09-21T20:07:03.350Z,10.70
2022-09-21T20:09:39.923Z,10.70
2022-09-21T20:12:15.822Z,10.60
2022-09-21T20:14:47.005Z,10.60
2022-09-21T20:17:22.094Z,10.50
2022-09-21T20:19:56.950Z,10.50
2022-09-21T20:22:33.703Z,10.40
2022-09-21T20:25:07.100Z,10.40
2022-09-21T20:27:39.700Z,10.30
2022-09-21T20:30:10.754Z,10.30
2022-09-21T20:32:43.868Z,10.30
2022-09-21T20:35:17.166Z,10.20
2022-09-21T20:37:47.045Z,10.20
2022-09-21T20:40:16.289Z,10.20
2022-09-21T20:42:44.589Z,10.10
2022-09-21T20:45:13.922Z,10.10
2022-09-21T20:47:43.804Z,10.00
2022-09-21T20:50:13.618Z,10.00
2022-09-21T20:52:43.098Z,10.00
2022-09-21T20:55:13.694Z,10.00
2022-09-21T20:57:41.806Z,9.90
2022-09-21T21:00:12.794Z,9.90
2022-09-21T21:02:41.223Z,9.80
2022-09-21T21:05:11.791Z,9.80
2022-09-21T21:07:42.470Z,9.80
2022-09-21T21:10:13.309Z,9.80
2022-09-21T21:12:41.746Z,9.70
2022-09-21T21:15:11.302Z,9.70
2022-09-21T21:17:39.642Z,9.60
2022-09-21T21:20:10.606Z,9.60
2022-09-21T21:22:38.810Z,9.60
2022-09-21T21:25:07.301Z,9.60
2022-09-21T21:27:36.179Z,9.60
2022-09-21T21:30:05.334Z,9.60
2022-09-21T21:32:33.704Z,9.50
2022-09-21T21:35:02.124Z,9.50
2022-09-21T21:37:31.656Z,9.40
2022-09-21T21:39:59.645Z,9.40
2022-09-21T21:42:29.532Z,9.40
2022-09-21T21:44:57.738Z,9.40
2022-09-21T21:47:41.609Z,9.30
2022-09-21T21:50:10.639Z,9.30
2022-09-21T21:52:40.563Z,9.30
2022-09-21T21:55:10.232Z,9.20
2022-09-21T21:57:38.225Z,9.20
2022-09-21T22:00:08.319Z,9.10
2022-09-21T22:02:36.788Z,9.10
2022-09-21T22:05:04.948Z,9.00
2022-09-21T22:07:33.294Z,9.00
2022-09-21T22:10:03.065Z,9.00
2022-09-21T22:12:31.717Z,9.00
2022-09-21T22:14:59.732Z,9.00
2022-09-21T22:17:27.756Z,9.00
2022-09-21T22:19:56.630Z,9.00
2022-09-21T22:22:24.816Z,8.90
2022-09-21T22:28:47.269Z,8.90
2022-09-21T22:31:18.032Z,8.80
2022-09-21T22:33:46.759Z,8.80
2022-09-21T22:36:16.670Z,8.80
2022-09-21T22:38:45.398Z,8.70
2022-09-21T22:41:14.856Z,8.70
2022-09-21T22:43:42.884Z,8.70
2022-09-21T22:46:12.667Z,8.70
2022-09-21T22:48:40.871Z,8.60
2022-09-21T22:51:09.541Z,8.60
2022-09-21T22:53:37.722Z,8.50
2022-09-21T22:56:08.042Z,8.50
2022-09-21T22:58:38.732Z,8.40
2022-09-21T23:01:08.693Z,8.50
2022-09-21T23:03:39.031Z,8.50
2022-09-21T23:06:09.013Z,8.50
2022-09-21T23:08:37.750Z,8.50
2022-09-21T23:11:11.697Z,8.40
2022-09-21T23:13:39.751Z,8.40
2022-09-21T23:16:09.662Z,8.30
2022-09-21T23:18:40.999Z,8.30
2022-09-21T23:21:11.782Z,8.30
2022-09-21T23:23:40.330Z,8.30
2022-09-21T23:26:10.865Z,8.20
2022-09-21T23:28:40.113Z,8.20
2022-09-21T23:31:10.639Z,8.20
2022-09-21T23:33:42.875Z,8.20
2022-09-21T23:36:13.012Z,8.10
2022-09-21T23:38:41.763Z,8.10
2022-09-21T23:41:11.917Z,8.10
2022-09-21T23:43:42.012Z,8.00
2022-09-21T23:46:12.169Z,8.00
2022-09-21T23:48:41.943Z,8.00
2022-09-21T23:58:41.199Z,7.90
